createdAt,value
2022-12-28T08:50:37.561Z,99.90
2022-12-28T09:03:38.565Z,99.90
2022-12-28T09:46:05.933Z,99.90
2022-12-28T09:50:59.473Z,99.90
2022-12-28T09:56:01.253Z,99.90
2022-12-28T10:00:57.149Z,99.90
2022-12-28T10:05:53.227Z,99.90
2022-12-28T10:10:49.205Z,99.90
2022-12-28T10:15:43.541Z,99.90
2022-12-28T10:20:37.735Z,99.90
2022-12-28T10:25:34.307Z,99.90
2022-12-28T10:30:28.576Z,99.90
2022-12-28T10:35:29.739Z,99.90
2022-12-28T10:40:27.767Z,99.90
2022-12-28T10:45:26.380Z,99.90
2022-12-28T10:50:41.587Z,99.90
2022-12-28T10:55:36.128Z,99.90
2022-12-28T11:00:32.285Z,99.90
2022-12-28T11:05:27.016Z,99.90
2022-12-28T11:10:28.636Z,99.90
2022-12-28T11:15:24.858Z,99.90
2022-12-28T11:20:24.798Z,99.90
2022-12-28T11:25:20.219Z,99.90
2022-12-28T11:30:17.763Z,99.90
2022-12-28T11:35:20.505Z,99.90
2022-12-28T11:40:47.383Z,99.90
2022-12-28T11:45:53.421Z,99.90
2022-12-28T11:50:55.029Z,99.90
2022-12-28T11:56:04.356Z,99.90
2022-12-28T12:01:00.193Z,99.90
2022-12-28T12:05:56.068Z,99.90
2022-12-28T12:10:50.403Z,99.30
2022-12-28T12:15:45.959Z,97.60
2022-12-28T12:20:58.568Z,96.30
2022-12-28T12:25:54.925Z,96.00
2022-12-28T12:30:49.680Z,95.90
2022-12-28T12:35:54.825Z,96.50
2022-12-28T12:41:03.425Z,96.20
2022-12-28T12:46:11.415Z,94.40
2022-12-28T12:51:17.010Z,93.80
2022-12-28T12:56:22.627Z,93.70
2022-12-28T13:01:30.992Z,93.50
2022-12-28T13:06:26.911Z,93.80
2022-12-28T13:11:22.853Z,93.50
2022-12-28T13:16:18.627Z,93.30
2022-12-28T13:21:20.492Z,93.50
2022-12-28T13:26:16.082Z,93.00
2022-12-28T13:31:17.430Z,93.10
2022-12-28T13:36:21.161Z,93.30
2022-12-28T13:41:25.385Z,93.80
2022-12-28T13:46:22.034Z,94.60
2022-12-28T13:51:19.072Z,95.70
2022-12-28T13:56:14.823Z,96.60
2022-12-28T14:01:15.204Z,98.00
2022-12-28T14:06:11.599Z,99.20
2022-12-28T14:11:06.312Z,99.90
2022-12-28T14:16:00.736Z,99.90
2022-12-28T14:20:55.634Z,99.90
2022-12-28T14:25:51.986Z,99.90
2022-12-28T14:30:51.943Z,99.90
2022-12-28T14:35:49.600Z,99.90
2022-12-28T14:40:43.360Z,99.90
2022-12-28T14:50:58.883Z,99.90
2022-12-28T14:56:00.555Z,99.90
2022-12-28T15:00:25.448Z,99.90
2022-12-28T15:01:01.324Z,99.90
2022-12-28T15:05:56.126Z,99.90
2022-12-28T15:10:51.779Z,99.90
2022-12-28T15:15:46.341Z,99.90
2022-12-28T15:20:41.399Z,99.90
2022-12-28T15:25:35.881Z,99.90
2022-12-28T15:30:29.679Z,99.90
2022-12-28T15:35:24.170Z,99.90
2022-12-28T15:40:19.609Z,99.90
2022-12-28T15:45:13.527Z,99.90
2022-12-28T15:50:08.120Z,99.90
2022-12-28T15:55:02.397Z,99.90
2022-12-28T15:59:57.782Z,99.90
2022-12-28T16:04:51.715Z,99.90
